Time;durP1;ratioP1;P1;durP2;ratioP2;P2;SDS_P1;SDS_P2;PMS_P1;PMS_P2;Temp;Humidity;BMP_temperature;BMP_pressure;BME280_temperature;BME280_humidity;BME280_pressure;Samples;Min_cycle;Max_cycle;Signal;HPM_P1;HPM_P2
2022/05/04 00:01:06;;;;;;;13.95;4.13;;;8.20;99.90;;;;;;5031869;28;20041;-66
2022/05/04 00:03:35;;;;;;;10.00;3.53;;;8.20;99.90;;;;;;5047149;28;20053;-68
2022/05/04 00:06:00;;;;;;;7.13;3.72;;;8.20;99.90;;;;;;5021965;28;20080;-66
2022/05/04 00:08:26;;;;;;;10.93;4.13;;;8.20;99.90;;;;;;5029777;28;20144;-66
2022/05/04 00:10:52;;;;;;;13.63;3.65;;;8.30;99.90;;;;;;5032333;28;20091;-69
2022/05/04 00:13:18;;;;;;;9.98;3.65;;;8.30;99.90;;;;;;5030659;28;20099;-66
2022/05/04 00:15:44;;;;;;;9.23;3.40;;;8.30;99.90;;;;;;5023049;28;20041;-66
2022/05/04 00:18:10;;;;;;;11.93;3.50;;;8.30;99.90;;;;;;5046242;28;20084;-66
2022/05/04 00:20:37;;;;;;;8.70;3.22;;;8.30;99.90;;;;;;5032981;28;20121;-66
2022/05/04 00:23:03;;;;;;;11.82;3.60;;;8.30;99.90;;;;;;5028244;28;20127;-66
2022/05/04 00:25:28;;;;;;;10.55;3.47;;;8.30;99.90;;;;;;5031888;28;20128;-66
2022/05/04 00:27:54;;;;;;;10.07;4.07;;;8.40;99.90;;;;;;5033039;28;20509;-66
2022/05/04 00:30:20;;;;;;;10.25;3.60;;;8.30;99.90;;;;;;5031517;28;20410;-65
2022/05/04 00:32:47;;;;;;;11.48;3.47;;;8.30;99.90;;;;;;5031646;28;20111;-66
2022/05/04 00:35:13;;;;;;;11.82;3.80;;;8.30;99.90;;;;;;5032008;28;20494;-66
2022/05/04 00:37:39;;;;;;;8.63;3.47;;;8.30;99.90;;;;;;5029197;28;20107;-66
2022/05/04 00:40:05;;;;;;;10.95;3.92;;;8.30;99.90;;;;;;5031703;28;20072;-68
2022/05/04 00:42:31;;;;;;;9.95;4.05;;;8.30;99.90;;;;;;5028339;28;20092;-66
2022/05/04 00:44:57;;;;;;;10.93;3.80;;;8.20;99.90;;;;;;5006305;28;20519;-67
2022/05/04 00:47:23;;;;;;;9.68;3.60;;;8.20;99.90;;;;;;5032396;28;20045;-67
2022/05/04 00:49:49;;;;;;;10.57;3.83;;;8.20;99.90;;;;;;5032507;28;20085;-67
2022/05/04 00:52:16;;;;;;;10.20;4.35;;;8.20;99.90;;;;;;5020597;28;20124;-67
2022/05/04 00:54:44;;;;;;;8.52;4.20;;;8.20;99.90;;;;;;5014798;28;20045;-66
2022/05/04 00:57:13;;;;;;;5.95;3.67;;;8.20;99.90;;;;;;5032547;28;20111;-66
2022/05/04 00:59:39;;;;;;;10.68;4.10;;;8.20;99.90;;;;;;5031879;28;20064;-66
2022/05/04 01:02:05;;;;;;;13.10;4.45;;;8.20;99.90;;;;;;5026380;28;20060;-68
2022/05/04 01:04:31;;;;;;;9.00;4.47;;;8.20;99.90;;;;;;5036561;28;20513;-66
2022/05/04 01:06:58;;;;;;;10.98;4.38;;;8.20;99.90;;;;;;5021108;28;20509;-66
2022/05/04 01:09:24;;;;;;;8.68;3.50;;;8.20;99.90;;;;;;5024207;28;20049;-67
2022/05/04 01:11:50;;;;;;;8.70;3.55;;;8.20;99.90;;;;;;5031321;28;20045;-67
2022/05/04 01:14:17;;;;;;;14.82;4.05;;;8.20;99.90;;;;;;5016736;28;20050;-67
2022/05/04 01:16:46;;;;;;;13.43;3.60;;;8.30;99.90;;;;;;5027773;28;20084;-66
2022/05/04 01:19:12;;;;;;;13.20;3.50;;;8.30;99.90;;;;;;5030749;28;20084;-67
2022/05/04 01:21:39;;;;;;;8.52;3.20;;;8.30;99.90;;;;;;5028638;28;20057;-69
2022/05/04 01:24:05;;;;;;;12.82;3.63;;;8.30;99.90;;;;;;5027897;28;20061;-66
2022/05/04 01:26:31;;;;;;;11.95;3.70;;;8.40;99.90;;;;;;5028046;28;20091;-67
2022/05/04 01:28:57;;;;;;;9.73;3.50;;;8.30;99.90;;;;;;4995555;28;20050;-66
2022/05/04 01:31:24;;;;;;;11.50;4.05;;;8.30;99.90;;;;;;5026782;28;20091;-66
2022/05/04 01:33:51;;;;;;;10.40;3.50;;;8.30;99.90;;;;;;5028943;28;20506;-66
2022/05/04 01:36:17;;;;;;;6.93;2.85;;;8.30;99.90;;;;;;5012952;28;20136;-67
2022/05/04 01:38:43;;;;;;;9.68;3.33;;;8.30;99.90;;;;;;5001479;28;20112;-66
2022/05/04 01:42:02;;;;;;;6.97;3.67;;;8.30;99.90;;;;;;5027131;28;20042;-67
2022/05/04 01:43:55;;;;;;;9.60;3.20;;;8.30;99.90;;;;;;5007998;28;20057;-67
2022/05/04 01:46:21;;;;;;;11.95;3.47;;;8.30;99.90;;;;;;5036782;28;20044;-67
2022/05/04 01:48:49;;;;;;;8.90;3.13;;;8.30;99.90;;;;;;5020928;28;20051;-67
2022/05/04 01:51:15;;;;;;;9.38;3.75;;;8.30;99.90;;;;;;5044116;28;20440;-68
2022/05/04 01:53:41;;;;;;;13.02;3.78;;;8.40;99.90;;;;;;5024639;28;20112;-70
2022/05/04 01:56:08;;;;;;;9.57;3.20;;;8.30;99.90;;;;;;5026044;28;20525;-67
2022/05/04 01:58:34;;;;;;;11.40;3.40;;;8.40;99.90;;;;;;5004018;28;20048;-67
2022/05/04 02:01:01;;;;;;;10.48;3.25;;;8.30;99.90;;;;;;5040495;28;20474;-67
2022/05/04 02:03:28;;;;;;;9.30;3.30;;;8.30;99.90;;;;;;5024600;28;20709;-67
2022/05/04 02:05:55;;;;;;;11.07;3.25;;;8.30;99.90;;;;;;5026355;28;20045;-67
2022/05/04 02:08:22;;;;;;;9.00;3.17;;;8.30;99.90;;;;;;5022784;28;20111;-66
2022/05/04 02:10:49;;;;;;;12.23;3.70;;;8.20;99.90;;;;;;5025270;28;20046;-67
2022/05/04 02:13:15;;;;;;;7.20;3.10;;;8.30;99.90;;;;;;5008236;28;20048;-67
2022/05/04 02:15:42;;;;;;;11.10;3.00;;;8.30;99.90;;;;;;5008857;28;20046;-69
2022/05/04 02:18:08;;;;;;;10.18;3.38;;;8.30;99.90;;;;;;5023409;28;20081;-67
2022/05/04 02:20:35;;;;;;;8.15;2.95;;;8.30;99.90;;;;;;5018612;28;20398;-66
2022/05/04 02:23:02;;;;;;;9.15;3.42;;;8.30;99.90;;;;;;5041056;28;20053;-69
2022/05/04 02:25:28;;;;;;;8.75;3.40;;;8.20;99.90;;;;;;5024390;28;20042;-67
2022/05/04 02:27:54;;;;;;;11.68;3.65;;;8.20;99.90;;;;;;5008881;28;20114;-66
2022/05/04 02:30:20;;;;;;;8.73;3.03;;;8.20;99.90;;;;;;5024374;28;20459;-67
2022/05/04 02:32:47;;;;;;;5.75;2.88;;;8.10;99.90;;;;;;5027758;28;20049;-69
2022/05/04 02:37:58;;;;;;;7.50;2.80;;;8.10;99.90;;;;;;5021751;28;20045;-67
2022/05/04 02:40:28;;;;;;;10.98;3.70;;;8.10;99.90;;;;;;5005018;28;20057;-67
2022/05/04 02:42:54;;;;;;;9.93;3.17;;;8.00;99.90;;;;;;4991462;28;20045;-69
2022/05/04 02:45:21;;;;;;;10.88;3.33;;;8.00;99.90;;;;;;5040188;28;20138;-67
2022/05/04 02:47:47;;;;;;;10.30;3.03;;;8.00;99.90;;;;;;5013860;28;20060;-69
2022/05/04 02:50:13;;;;;;;9.93;3.00;;;7.90;99.90;;;;;;5008659;28;20070;-67
2022/05/04 02:52:39;;;;;;;9.30;3.50;;;7.90;99.90;;;;;;5039848;28;20402;-66
2022/05/04 02:55:05;;;;;;;12.45;3.63;;;8.10;99.90;;;;;;5024668;28;20056;-67
2022/05/04 02:57:31;;;;;;;7.85;3.25;;;7.90;99.90;;;;;;5008510;28;20057;-67
2022/05/04 02:59:57;;;;;;;7.88;2.95;;;7.90;99.90;;;;;;5002759;28;20053;-67
2022/05/04 03:02:28;;;;;;;8.95;2.95;;;7.80;99.90;;;;;;5008293;28;20056;-67
2022/05/04 03:04:55;;;;;;;;;;;7.80;99.90;;;;;;5027585;28;20045;-70
2022/05/04 03:07:21;;;;;;;9.07;2.70;;;7.80;99.90;;;;;;5028866;28;19925;-67
2022/05/04 03:09:47;;;;;;;8.27;2.72;;;7.80;99.90;;;;;;5026383;28;20102;-66
2022/05/04 03:12:13;;;;;;;11.73;3.13;;;7.80;99.90;;;;;;5024475;28;20098;-68
2022/05/04 03:14:39;;;;;;;8.20;2.75;;;7.80;99.90;;;;;;5009201;28;20110;-67
2022/05/04 03:17:05;;;;;;;6.88;2.47;;;7.70;99.90;;;;;;5028332;28;20049;-68
2022/05/04 03:19:31;;;;;;;7.40;2.47;;;7.60;99.90;;;;;;5025820;28;20049;-66
2022/05/04 03:21:56;;;;;;;11.00;2.90;;;7.50;99.90;;;;;;5043968;28;20070;-67
2022/05/04 03:24:22;;;;;;;8.63;2.85;;;7.50;99.90;;;;;;5025766;28;20140;-68
2022/05/04 03:26:49;;;;;;;8.07;3.00;;;7.40;99.90;;;;;;5002442;28;20042;-68
2022/05/04 03:29:15;;;;;;;8.35;3.20;;;7.40;99.90;;;;;;4993171;28;20375;-67
2022/05/04 03:31:41;;;;;;;7.03;2.83;;;7.30;99.90;;;;;;5027735;28;20069;-69
2022/05/04 03:34:07;;;;;;;9.52;2.72;;;7.20;99.90;;;;;;5009579;28;20636;-67
2022/05/04 03:36:35;;;;;;;10.75;2.92;;;7.20;99.90;;;;;;5011087;28;20141;-67
2022/05/04 03:39:02;;;;;;;8.02;3.03;;;7.10;99.90;;;;;;5011265;28;20469;-67
2022/05/04 03:41:28;;;;;;;7.35;2.70;;;7.10;99.90;;;;;;5010335;28;20083;-67
2022/05/04 03:43:54;;;;;;;8.38;2.70;;;7.10;99.90;;;;;;5011286;28;20084;-66
2022/05/04 03:46:23;;;;;;;8.60;2.58;;;7.10;99.90;;;;;;5025375;28;20057;-67
2022/05/04 03:48:51;;;;;;;9.95;2.35;;;7.10;99.90;;;;;;5024059;28;20374;-67
2022/05/04 03:51:20;;;;;;;6.63;2.42;;;7.10;99.90;;;;;;5038760;28;20045;-66
2022/05/04 03:53:48;;;;;;;6.50;2.70;;;7.10;99.90;;;;;;5027002;28;20452;-67
2022/05/04 03:56:14;;;;;;;7.10;2.55;;;7.00;99.90;;;;;;5024334;28;20056;-67
2022/05/04 03:58:41;;;;;;;8.52;2.50;;;7.00;99.90;;;;;;5025455;28;20041;-68
2022/05/04 04:01:07;;;;;;;5.05;2.70;;;7.00;99.90;;;;;;5025693;28;20049;-67
2022/05/04 04:03:33;;;;;;;5.47;2.60;;;6.90;99.90;;;;;;5008278;28;20091;-69
2022/05/04 04:05:59;;;;;;;11.27;3.10;;;6.90;99.90;;;;;;5026187;28;20397;-66
2022/05/04 04:08:26;;;;;;;7.80;2.55;;;6.90;99.90;;;;;;5029679;28;20125;-68
2022/05/04 04:10:52;;;;;;;8.07;2.90;;;6.90;99.90;;;;;;5024066;28;20064;-66
2022/05/04 04:13:18;;;;;;;7.93;2.55;;;6.90;99.90;;;;;;5027034;28;20112;-67
2022/05/04 04:15:45;;;;;;;6.55;2.50;;;6.90;99.90;;;;;;4980166;28;20045;-66
2022/05/04 04:18:11;;;;;;;6.35;2.75;;;6.90;99.90;;;;;;5027060;28;20049;-68
2022/05/04 04:23:22;;;;;;;7.57;2.38;;;7.00;99.90;;;;;;5026955;28;20045;-66
2022/05/04 04:25:48;;;;;;;6.68;2.45;;;7.10;99.90;;;;;;5025388;28;20120;-69
2022/05/04 04:28:14;;;;;;;9.18;2.53;;;7.10;99.90;;;;;;5027291;28;20053;-66
2022/05/04 04:30:40;;;;;;;8.57;2.45;;;7.10;99.90;;;;;;5025036;28;20051;-68
2022/05/04 04:33:06;;;;;;;7.10;2.50;;;7.20;99.90;;;;;;5023961;28;20050;-67
2022/05/04 04:35:36;;;;;;;8.80;3.00;;;7.30;99.90;;;;;;5027371;28;20048;-66
2022/05/04 04:38:02;;;;;;;10.73;2.83;;;7.30;99.90;;;;;;5030754;28;20080;-68
2022/05/04 04:40:28;;;;;;;7.32;2.60;;;7.40;99.90;;;;;;5025669;28;20073;-66
2022/05/04 04:42:55;;;;;;;12.80;2.60;;;7.50;99.90;;;;;;5009815;28;20052;-66
2022/05/04 04:45:21;;;;;;;10.00;2.63;;;7.60;99.90;;;;;;4981292;28;20482;-67
2022/05/04 04:47:48;;;;;;;7.32;2.38;;;7.70;99.90;;;;;;5055415;28;20045;-66
2022/05/04 04:50:14;;;;;;;9.30;2.47;;;7.80;99.90;;;;;;5031974;28;20088;-66
2022/05/04 04:52:41;;;;;;;6.50;2.55;;;7.80;99.90;;;;;;5028603;28;20044;-67
2022/05/04 04:55:07;;;;;;;8.63;2.78;;;7.90;99.90;;;;;;5010703;28;20103;-66
2022/05/04 04:57:33;;;;;;;10.27;3.13;;;8.00;99.90;;;;;;5009118;28;20057;-67
2022/05/04 04:59:59;;;;;;;6.45;2.90;;;8.10;99.90;;;;;;4992906;28;20503;-68
2022/05/04 05:02:26;;;;;;;12.52;3.00;;;8.20;99.90;;;;;;5009805;28;20049;-67
2022/05/04 05:04:52;;;;;;;11.60;3.30;;;8.20;99.90;;;;;;5026511;28;20120;-67
2022/05/04 05:07:18;;;;;;;7.80;3.00;;;8.20;99.90;;;;;;5026272;28;20046;-68
2022/05/04 05:09:44;;;;;;;10.32;2.80;;;8.30;99.90;;;;;;5008430;28;20045;-67
2022/05/04 05:12:11;;;;;;;11.25;3.13;;;8.40;99.90;;;;;;5025366;28;20064;-66
2022/05/04 05:17:21;;;;;;;8.73;2.45;;;8.50;99.90;;;;;;5025083;28;20076;-69
2022/05/04 05:19:47;;;;;;;9.73;2.42;;;8.60;99.90;;;;;;5025834;28;20045;-68
2022/05/04 05:22:13;;;;;;;6.07;2.25;;;8.70;99.90;;;;;;5024080;28;20049;-67
2022/05/04 05:24:39;;;;;;;8.27;2.22;;;8.70;99.90;;;;;;5024355;28;20037;-67
2022/05/04 05:27:08;;;;;;;6.78;2.42;;;8.80;99.90;;;;;;5026053;28;20053;-66
2022/05/04 05:29:34;;;;;;;8.35;2.22;;;8.80;99.90;;;;;;5025366;28;20048;-67
2022/05/04 05:32:00;;;;;;;8.70;2.40;;;8.80;99.90;;;;;;5039748;28;20052;-68
2022/05/04 05:34:28;;;;;;;8.20;2.25;;;8.80;99.90;;;;;;5008644;28;20390;-67
2022/05/04 05:36:54;;;;;;;5.80;2.35;;;8.90;99.90;;;;;;4987436;28;20122;-67
2022/05/04 05:39:20;;;;;;;6.18;2.38;;;8.90;99.90;;;;;;4994155;28;20494;-67
2022/05/04 05:41:46;;;;;;;14.13;2.75;;;8.90;99.90;;;;;;4992179;28;20512;-66
2022/05/04 05:44:12;;;;;;;11.35;2.97;;;8.90;99.90;;;;;;5006217;28;20061;-67
2022/05/04 05:46:38;;;;;;;8.57;2.60;;;9.00;99.90;;;;;;5015235;28;20507;-67
2022/05/04 05:49:04;;;;;;;6.57;2.15;;;8.90;99.90;;;;;;5031393;28;20128;-67
2022/05/04 05:51:30;;;;;;;8.98;2.45;;;9.00;99.90;;;;;;5025545;28;20062;-68
2022/05/04 05:53:56;;;;;;;7.88;2.58;;;9.00;99.90;;;;;;5011374;28;20275;-67
2022/05/04 05:56:22;;;;;;;15.48;2.67;;;9.10;99.90;;;;;;5031363;28;20052;-66
2022/05/04 05:58:48;;;;;;;6.13;2.10;;;9.10;99.90;;;;;;5031061;28;20537;-66
2022/05/04 06:01:14;;;;;;;6.78;2.47;;;9.00;99.90;;;;;;5025552;28;20108;-66
2022/05/04 06:03:40;;;;;;;8.10;2.65;;;9.00;99.90;;;;;;5031223;28;20056;-66
2022/05/04 06:06:06;;;;;;;11.10;2.42;;;9.10;99.90;;;;;;5024018;28;20045;-70
2022/05/04 06:08:32;;;;;;;10.02;2.30;;;9.10;99.90;;;;;;5024858;28;20055;-67
2022/05/04 06:10:58;;;;;;;8.05;2.22;;;9.20;99.90;;;;;;5024337;28;20486;-67
2022/05/04 06:13:24;;;;;;;9.43;2.40;;;9.20;99.90;;;;;;5024602;28;20041;-67
2022/05/04 06:15:51;;;;;;;9.10;2.45;;;9.30;99.90;;;;;;5010120;28;20103;-67
2022/05/04 06:18:17;;;;;;;9.65;2.30;;;9.30;99.90;;;;;;5025195;28;20048;-68
2022/05/04 06:20:43;;;;;;;10.95;2.75;;;9.30;99.90;;;;;;5023287;28;20464;-69
2022/05/04 06:23:10;;;;;;;8.75;2.60;;;9.40;99.90;;;;;;5024641;28;20479;-68
2022/05/04 06:25:36;;;;;;;7.88;2.20;;;9.40;99.90;;;;;;5025464;28;20529;-70
2022/05/04 06:28:03;;;;;;;8.63;2.35;;;9.30;99.90;;;;;;5007902;28;20125;-71
2022/05/04 06:35:59;;;;;;;7.32;1.77;;;9.50;99.90;;;;;;5008577;28;20049;-67
2022/05/04 06:38:25;;;;;;;6.25;2.10;;;9.60;99.90;;;;;;5022994;28;20563;-67
2022/05/04 06:40:51;;;;;;;7.35;1.80;;;9.70;99.90;;;;;;5040107;28;20041;-67
2022/05/04 06:43:17;;;;;;;11.30;2.65;;;9.60;99.90;;;;;;5008699;28;20042;-67
2022/05/04 06:45:43;;;;;;;8.02;2.15;;;9.60;99.90;;;;;;4991387;28;20525;-66
2022/05/04 06:48:09;;;;;;;6.95;2.10;;;9.50;99.90;;;;;;5025316;28;20124;-68
2022/05/04 06:50:36;;;;;;;10.02;2.28;;;9.50;99.90;;;;;;5007035;28;20049;-68
2022/05/04 06:53:02;;;;;;;12.70;2.20;;;9.50;99.90;;;;;;5018036;28;20122;-67
2022/05/04 06:55:28;;;;;;;10.98;2.20;;;9.60;99.90;;;;;;5015707;28;20104;-67
2022/05/04 06:57:54;;;;;;;6.57;2.00;;;9.70;99.90;;;;;;5022924;28;20045;-68
2022/05/04 07:00:20;;;;;;;9.57;2.10;;;9.80;99.90;;;;;;5037754;28;20481;-67
2022/05/04 07:02:47;;;;;;;6.30;1.88;;;9.80;99.90;;;;;;5038126;28;20060;-67
2022/05/04 07:05:13;;;;;;;5.30;1.80;;;10.00;99.90;;;;;;5033620;28;20517;-67
2022/05/04 07:07:39;;;;;;;9.05;1.90;;;10.00;99.90;;;;;;5036323;28;20048;-69
2022/05/04 07:10:06;;;;;;;9.90;2.20;;;10.10;99.90;;;;;;5030291;28;20042;-67
2022/05/04 07:12:32;;;;;;;5.82;2.10;;;10.00;99.90;;;;;;5026855;28;20494;-67
2022/05/04 07:14:58;;;;;;;8.20;2.17;;;10.10;99.90;;;;;;5046021;28;20176;-68
2022/05/04 07:17:25;;;;;;;5.07;1.85;;;10.10;99.90;;;;;;5026358;28;20060;-67
2022/05/04 07:19:52;;;;;;;8.85;2.00;;;10.20;99.90;;;;;;5029973;28;20041;-66
2022/05/04 07:22:19;;;;;;;9.77;2.28;;;10.40;99.90;;;;;;5016790;28;20061;-67
2022/05/04 07:24:45;;;;;;;8.63;2.35;;;10.50;99.90;;;;;;5019842;28;20080;-69
2022/05/04 07:27:11;;;;;;;8.32;1.83;;;10.70;99.90;;;;;;5006393;28;20129;-70
2022/05/04 07:29:38;;;;;;;5.53;2.10;;;10.40;99.90;;;;;;5003063;28;20045;-69
2022/05/04 07:32:04;;;;;;;11.13;2.33;;;10.70;99.90;;;;;;5033912;28;20073;-67
2022/05/04 07:34:30;;;;;;;8.05;1.98;;;10.80;99.90;;;;;;5039629;28;20514;-68
2022/05/04 07:36:58;;;;;;;7.55;2.08;;;11.00;99.90;;;;;;5039782;28;20107;-69
2022/05/04 07:42:26;;;;;;;6.65;1.98;;;10.60;99.90;;;;;;5003929;28;20445;-67
2022/05/04 07:45:04;;;;;;;8.95;2.78;;;10.70;99.90;;;;;;5040856;28;20393;-67
2022/05/04 07:47:34;;;;;;;5.28;2.15;;;10.80;99.90;;;;;;5029658;28;20049;-70
2022/05/04 07:50:00;;;;;;;8.90;2.10;;;11.00;99.90;;;;;;5026656;28;20056;-68
2022/05/04 07:52:27;;;;;;;7.00;2.10;;;11.20;99.90;;;;;;5032855;28;20695;-72
2022/05/04 07:54:53;;;;;;;6.22;1.80;;;11.20;99.90;;;;;;5031489;28;20124;-67
2022/05/04 07:57:20;;;;;;;7.60;2.03;;;11.20;99.90;;;;;;5014498;28;21341;-67
2022/05/04 08:04:16;;;;;;;6.28;2.05;;;11.50;99.90;;;;;;5033339;28;20045;-69
2022/05/04 08:05:18;;;;;;;6.25;2.30;;;11.40;99.90;;;;;;5041018;28;20045;-67
2022/05/04 08:07:44;;;;;;;6.93;1.98;;;11.40;99.90;;;;;;5016988;28;20131;-67
2022/05/04 08:10:10;;;;;;;6.35;2.20;;;11.60;99.90;;;;;;5010068;28;20037;-67
2022/05/04 08:12:36;;;;;;;8.50;2.03;;;12.00;99.90;;;;;;5038767;28;20485;-70
2022/05/04 08:15:02;;;;;;;6.55;1.67;;;12.30;99.90;;;;;;5015812;28;20124;-68
2022/05/04 08:17:28;;;;;;;6.85;1.80;;;12.40;99.90;;;;;;5032191;28;20049;-68
2022/05/04 08:19:54;;;;;;;4.32;1.70;;;12.50;99.90;;;;;;5022506;28;20042;-67
2022/05/04 08:22:20;;;;;;;5.43;1.83;;;12.30;96.80;;;;;;5004546;28;20811;-69
2022/05/04 08:24:46;;;;;;;7.97;2.03;;;12.30;90.80;;;;;;5047639;28;20092;-69
2022/05/04 08:27:14;;;;;;;6.15;2.17;;;12.30;96.90;;;;;;5029818;28;20073;-70
2022/05/04 08:29:40;;;;;;;7.38;2.10;;;12.20;95.70;;;;;;5044645;28;20513;-72
2022/05/04 08:32:07;;;;;;;5.57;2.13;;;12.50;97.50;;;;;;5011178;28;20088;-70
2022/05/04 08:34:33;;;;;;;11.52;2.10;;;13.10;84.90;;;;;;5022735;28;20061;-74
2022/05/04 08:36:59;;;;;;;6.50;1.95;;;13.60;79.60;;;;;;5011486;28;20133;-68
2022/05/04 08:39:24;;;;;;;10.93;2.45;;;13.80;78.90;;;;;;5030142;28;20045;-71
2022/05/04 08:41:51;;;;;;;7.38;2.13;;;14.20;76.30;;;;;;5021707;28;20045;-68
2022/05/04 08:44:18;;;;;;;6.18;2.22;;;14.40;72.80;;;;;;5015550;28;20505;-70
2022/05/04 08:46:44;;;;;;;8.85;2.28;;;14.00;71.30;;;;;;5025694;28;20492;-71
2022/05/04 08:49:12;;;;;;;9.15;2.22;;;13.60;70.80;;;;;;5016971;28;20046;-70
2022/05/04 08:51:40;;;;;;;31.52;3.53;;;13.50;71.20;;;;;;5045107;28;20045;-69
2022/05/04 08:54:07;;;;;;;9.63;2.75;;;13.50;72.00;;;;;;5032411;28;20099;-73
2022/05/04 10:16:10;;;;;;;7.97;2.70;;;16.70;62.10;;;;;;5032797;22;20169;-68
2022/05/04 10:18:38;;;;;;;7.95;2.90;;;16.90;58.90;;;;;;5009275;28;20061;-67
2022/05/04 10:21:17;;;;;;;10.63;3.30;;;16.30;59.30;;;;;;4997148;28;20061;-67
2022/05/04 10:23:52;;;;;;;7.30;2.70;;;16.30;60.10;;;;;;5010980;28;20470;-67
2022/05/04 10:26:34;;;;;;;6.13;2.90;;;16.30;59.60;;;;;;5014054;28;20080;-66
2022/05/04 10:32:07;;;;;;;7.13;2.70;;;16.30;59.40;;;;;;5013722;28;20053;-67
2022/05/04 10:34:33;;;;;;;5.80;2.65;;;16.20;59.30;;;;;;5023252;28;20620;-67
2022/05/04 10:36:59;;;;;;;6.78;2.58;;;15.40;58.70;;;;;;4992717;28;20042;-69
2022/05/04 10:39:25;;;;;;;8.68;2.75;;;15.00;58.50;;;;;;5013504;28;20041;-68
2022/05/04 10:41:51;;;;;;;7.65;2.58;;;14.90;59.40;;;;;;4981361;28;20166;-69
2022/05/04 10:44:17;;;;;;;8.35;2.75;;;15.20;60.20;;;;;;5010313;28;20111;-76
2022/05/04 10:46:49;;;;;;;7.57;2.60;;;15.60;60.10;;;;;;5008460;28;20140;-69
2022/05/04 10:49:16;;;;;;;;;;;15.80;60.40;;;;;;5013334;28;20057;-69
2022/05/04 10:51:47;;;;;;;5.53;2.30;;;16.10;58.30;;;;;;5013273;28;19921;-68
2022/05/04 10:54:18;;;;;;;7.90;3.00;;;16.40;59.40;;;;;;5014243;28;20117;-70
2022/05/04 10:56:52;;;;;;;7.70;2.97;;;16.80;59.40;;;;;;5010446;28;20300;-70
2022/05/04 10:59:26;;;;;;;7.78;2.60;;;17.00;58.60;;;;;;5004097;28;20620;-69
2022/05/04 11:02:05;;;;;;;5.28;2.38;;;17.10;58.30;;;;;;5011009;28;20061;-69
2022/05/04 11:04:35;;;;;;;8.07;2.70;;;16.70;59.00;;;;;;5013617;28;20057;-69
2022/05/04 11:07:07;;;;;;;8.75;2.75;;;16.60;59.00;;;;;;5012912;28;20064;-69
2022/05/04 11:09:42;;;;;;;8.25;2.83;;;16.40;58.70;;;;;;5009076;28;20046;-70
2022/05/04 11:12:10;;;;;;;7.75;2.97;;;16.10;58.10;;;;;;5007797;28;20102;-77
2022/05/04 11:14:37;;;;;;;8.05;2.92;;;16.00;59.10;;;;;;5013584;28;20049;-67
2022/05/04 11:17:10;;;;;;;9.95;2.88;;;15.70;58.90;;;;;;4992850;28;20179;-67
2022/05/04 11:19:42;;;;;;;6.85;2.90;;;15.80;58.70;;;;;;4978021;28;20052;-68
2022/05/04 11:22:08;;;;;;;7.38;2.78;;;16.00;58.50;;;;;;4998529;28;20048;-69
2022/05/04 11:24:35;;;;;;;8.70;3.33;;;15.30;59.30;;;;;;5017468;28;20405;-67
2022/05/04 11:27:01;;;;;;;8.38;3.10;;;15.70;58.60;;;;;;5034139;28;20041;-68
2022/05/04 11:29:29;;;;;;;8.57;3.50;;;16.10;58.20;;;;;;5016883;28;20426;-67
2022/05/04 11:32:00;;;;;;;6.43;3.30;;;15.80;59.50;;;;;;5005041;28;20177;-68
2022/05/04 11:34:37;;;;;;;8.07;2.83;;;15.50;59.50;;;;;;4997649;28;20045;-68
2022/05/04 11:37:07;;;;;;;6.60;3.00;;;16.00;59.80;;;;;;4997944;28;20053;-68
2022/05/04 11:39:34;;;;;;;10.50;2.95;;;16.30;59.40;;;;;;4997924;28;20050;-70
2022/05/04 11:42:02;;;;;;;7.97;2.90;;;16.40;59.00;;;;;;4998928;28;20125;-69
2022/05/04 11:44:30;;;;;;;7.05;3.28;;;16.80;58.50;;;;;;5017351;28;20133;-68
2022/05/04 11:46:58;;;;;;;5.38;2.65;;;16.60;58.10;;;;;;5017435;28;20092;-68
2022/05/04 11:49:27;;;;;;;6.18;3.05;;;16.90;58.20;;;;;;5001083;28;20076;-70
2022/05/04 11:51:54;;;;;;;7.80;3.28;;;16.80;57.20;;;;;;5014429;28;20053;-70
2022/05/04 11:54:21;;;;;;;6.07;2.83;;;16.30;58.00;;;;;;5033783;28;20064;-68
2022/05/04 11:56:47;;;;;;;7.50;3.25;;;16.80;57.10;;;;;;5009473;28;20050;-68
2022/05/04 11:59:14;;;;;;;6.20;3.08;;;17.30;57.20;;;;;;4997655;28;20666;-69
2022/05/04 12:01:41;;;;;;;7.93;3.28;;;17.30;56.50;;;;;;5006510;28;20045;-69
2022/05/04 12:04:10;;;;;;;10.77;3.10;;;17.60;56.90;;;;;;5019379;28;20056;-68
2022/05/04 12:06:36;;;;;;;6.75;2.72;;;18.00;56.10;;;;;;5008356;28;20104;-68
2022/05/04 12:09:04;;;;;;;7.47;2.90;;;18.40;55.30;;;;;;4997335;28;20453;-69
2022/05/04 12:11:32;;;;;;;6.38;2.60;;;18.80;55.20;;;;;;5001358;28;20434;-68
2022/05/04 12:14:00;;;;;;;7.00;3.05;;;18.50;55.40;;;;;;5017037;28;20049;-69
2022/05/04 12:16:28;;;;;;;8.23;3.60;;;18.50;55.20;;;;;;4999850;28;20075;-70
2022/05/04 12:18:55;;;;;;;5.45;3.20;;;18.40;53.20;;;;;;5016968;28;20138;-68
2022/05/04 12:21:22;;;;;;;7.95;3.38;;;17.90;55.20;;;;;;5015490;28;20072;-69
2022/05/04 12:23:51;;;;;;;5.50;3.55;;;18.20;54.90;;;;;;5015243;28;20074;-68
2022/05/04 12:26:18;;;;;;;7.63;3.65;;;18.70;54.60;;;;;;5000540;28;20132;-68
2022/05/04 12:33:08;;;;;;;9.27;3.10;;;19.00;55.20;;;;;;5016736;28;20057;-67
2022/05/04 12:34:20;;;;;;;8.00;3.05;;;18.80;56.70;;;;;;5031158;28;20136;-69
2022/05/04 12:36:47;;;;;;;6.43;2.90;;;18.40;55.40;;;;;;5016566;28;20128;-69
2022/05/04 12:39:13;;;;;;;4.40;3.33;;;18.70;55.30;;;;;;5032791;28;20041;-68
2022/05/04 12:41:43;;;;;;;7.85;3.35;;;18.70;54.80;;;;;;5016003;28;20049;-69
2022/05/04 12:44:09;;;;;;;6.28;2.85;;;18.80;54.90;;;;;;5015451;28;20056;-68
2022/05/04 12:46:37;;;;;;;7.93;2.85;;;19.20;55.70;;;;;;5016531;28;20057;-68
2022/05/04 12:49:03;;;;;;;7.88;2.90;;;19.60;53.10;;;;;;4999936;28;20096;-70
2022/05/04 12:51:29;;;;;;;6.28;2.78;;;19.50;52.70;;;;;;5015472;28;20077;-69
2022/05/04 12:53:55;;;;;;;6.60;2.88;;;20.10;52.30;;;;;;4997269;28;20053;-69
2022/05/04 12:59:06;;;;;;;5.35;2.88;;;19.90;53.00;;;;;;5007313;28;20054;-69
2022/05/04 13:01:36;;;;;;;8.50;2.70;;;20.10;51.70;;;;;;4989071;28;20049;-69
2022/05/04 13:04:02;;;;;;;7.05;3.00;;;19.30;52.30;;;;;;5000471;28;20500;-69
2022/05/04 13:06:28;;;;;;;8.30;3.30;;;20.10;52.60;;;;;;5012099;28;20165;-70
2022/05/04 13:08:55;;;;;;;5.53;2.60;;;20.10;52.90;;;;;;5013696;28;20045;-69
2022/05/04 13:11:22;;;;;;;8.25;2.95;;;21.10;52.20;;;;;;4982852;28;20045;-68
2022/05/04 13:13:48;;;;;;;9.93;2.95;;;21.30;51.10;;;;;;5012356;28;20056;-68
2022/05/04 13:16:17;;;;;;;9.88;3.10;;;22.10;49.30;;;;;;5013843;28;20053;-69
2022/05/04 13:18:44;;;;;;;7.88;2.90;;;21.80;48.80;;;;;;4995539;28;20049;-68
2022/05/04 13:21:10;;;;;;;7.60;2.90;;;22.30;48.60;;;;;;5012372;28;20052;-68
2022/05/04 13:23:36;;;;;;;8.32;2.63;;;22.10;48.40;;;;;;5009196;28;20041;-68
2022/05/04 13:26:03;;;;;;;8.80;3.03;;;22.90;47.90;;;;;;5017326;28;20111;-70
2022/05/04 13:28:29;;;;;;;6.45;2.60;;;23.00;46.60;;;;;;5022324;28;20045;-68
2022/05/04 13:30:56;;;;;;;7.90;3.00;;;22.50;45.70;;;;;;4994358;28;20735;-69
2022/05/04 13:33:23;;;;;;;8.18;3.10;;;21.90;45.90;;;;;;5009510;28;20037;-69
2022/05/04 13:35:48;;;;;;;8.35;2.88;;;22.30;47.60;;;;;;5032799;28;20057;-70
2022/05/04 13:38:15;;;;;;;8.27;2.80;;;22.20;47.80;;;;;;4995521;28;20553;-70
2022/05/04 13:40:41;;;;;;;7.30;2.70;;;21.90;47.50;;;;;;5012235;28;20050;-70
2022/05/04 13:43:08;;;;;;;6.82;2.90;;;22.20;47.10;;;;;;4990624;28;20184;-70
2022/05/04 13:45:34;;;;;;;6.50;2.80;;;21.90;46.70;;;;;;4990557;28;20096;-69
2022/05/04 13:48:00;;;;;;;8.95;3.00;;;21.60;47.30;;;;;;5004489;28;20083;-70
2022/05/04 13:53:16;;;;;;;10.80;3.47;;;21.80;47.60;;;;;;5017472;28;20098;-69
2022/05/04 13:55:50;;;;;;;7.13;3.17;;;21.80;47.80;;;;;;4995263;28;20470;-70
2022/05/04 13:58:22;;;;;;;6.53;2.53;;;23.30;46.80;;;;;;4965818;28;20104;-69
2022/05/04 14:00:51;;;;;;;8.32;2.80;;;23.90;45.40;;;;;;4995747;28;20060;-69
2022/05/04 14:03:19;;;;;;;6.15;3.05;;;24.80;44.30;;;;;;5014347;28;20052;-69
2022/05/04 14:05:45;;;;;;;6.50;2.72;;;25.10;43.50;;;;;;5009324;28;20180;-67
2022/05/04 14:08:11;;;;;;;7.90;3.03;;;25.10;43.00;;;;;;4995480;28;20038;-68
2022/05/04 14:10:43;;;;;;;6.22;2.80;;;24.60;43.00;;;;;;5030997;28;20048;-67
2022/05/04 14:13:11;;;;;;;5.93;2.90;;;24.70;41.90;;;;;;5030440;28;20406;-67
2022/05/04 14:15:37;;;;;;;4.38;2.80;;;24.10;42.80;;;;;;5014493;28;20041;-67
2022/05/04 14:18:05;;;;;;;8.30;3.17;;;23.90;43.50;;;;;;4997538;28;20119;-69
2022/05/04 14:20:34;;;;;;;6.78;3.85;;;23.70;44.70;;;;;;5013011;28;20136;-69
2022/05/04 14:23:01;;;;;;;5.80;2.85;;;23.60;45.20;;;;;;5012741;28;20048;-67
2022/05/04 14:25:27;;;;;;;6.60;2.97;;;24.00;44.80;;;;;;5011830;28;20049;-68
2022/05/04 14:27:56;;;;;;;5.32;3.20;;;24.40;44.10;;;;;;5026780;28;20865;-67
2022/05/04 14:30:22;;;;;;;5.70;2.97;;;24.90;42.90;;;;;;4996310;28;20045;-68
2022/05/04 14:32:48;;;;;;;5.07;2.55;;;25.20;42.30;;;;;;5008849;28;20064;-68
2022/05/04 14:35:14;;;;;;;5.50;2.83;;;25.20;42.10;;;;;;5000612;28;20121;-69
2022/05/04 14:37:40;;;;;;;6.80;2.90;;;25.10;41.60;;;;;;4996849;28;20467;-68
2022/05/04 14:40:07;;;;;;;5.95;2.92;;;25.60;41.60;;;;;;5001179;28;20045;-69